Time;durP1;ratioP1;P1;durP2;ratioP2;P2;SDS_P1;SDS_P2;PMS_P1;PMS_P2;Temp;Humidity;BMP_temperature;BMP_pressure;BME280_temperature;BME280_humidity;BME280_pressure;Samples;Min_cycle;Max_cycle;Signal;HPM_P1;HPM_P2
2021/11/05 00:00:03;;;;;;;;;;;;;;;21.08;35.15;95523.78;1043779;28;808;-60
2021/11/05 00:00:33;;;;;;;;;;;;;;;21.09;35.01;95520.06;1039925;28;805;-59
2021/11/05 00:01:05;;;;;;;;;;;;;;;21.11;35.46;95522.41;1039534;28;808;-58
2021/11/05 00:01:36;;;;;;;;;;;;;;;21.11;35.12;95514.50;1040768;28;773;-61
2021/11/05 00:02:06;;;;;;;;;;;;;;;21.10;35.12;95521.66;1040337;28;1006;-62
2021/11/05 00:02:36;;;;;;;;;;;;;;;21.08;35.53;95517.72;1040509;28;1297;-59
2021/11/05 00:03:07;;;;;;;;;;;;;;;21.06;35.20;95518.78;1040720;28;781;-58
2021/11/05 00:03:37;;;;;;;;;;;;;;;21.04;35.73;95518.25;1040772;28;793;-58
2021/11/05 00:04:07;;;;;;;;;;;;;;;21.05;35.59;95517.22;1040734;28;1026;-60
2021/11/05 00:04:38;;;;;;;;;;;;;;;21.06;35.71;95518.00;1040175;28;1030;-60
2021/11/05 00:05:08;;;;;;;;;;;;;;;21.03;35.60;95521.97;1040515;28;812;-59
2021/11/05 00:05:38;;;;;;;;;;;;;;;21.04;35.46;95523.53;1040727;28;974;-61
2021/11/05 00:06:09;;;;;;;;;;;;;;;21.04;35.31;95520.91;1040460;28;714;-57
2021/11/05 00:06:39;;;;;;;;;;;;;;;21.04;35.29;95523.53;1040840;28;812;-59
2021/11/05 00:07:09;;;;;;;;;;;;;;;21.06;35.01;95518.00;1040848;28;966;-58
2021/11/05 00:07:40;;;;;;;;;;;;;;;21.07;35.29;95522.19;1040237;28;777;-61
2021/11/05 00:08:10;;;;;;;;;;;;;;;21.08;35.09;95520.34;1040335;28;1003;-59
2021/11/05 00:08:41;;;;;;;;;;;;;;;21.09;35.21;95520.06;1040811;28;1077;-61
2021/11/05 00:09:11;;;;;;;;;;;;;;;21.09;35.12;95520.06;1040690;28;698;-59
2021/11/05 00:09:41;;;;;;;;;;;;;;;21.06;35.23;95524.03;1040694;28;819;-60
2021/11/05 00:10:12;;;;;;;;;;;;;;;21.04;35.38;95523.53;1039988;28;1546;-60
2021/11/05 00:10:42;;;;;;;;;;;;;;;21.06;35.07;95524.03;1040462;28;1018;-60
2021/11/05 00:11:13;;;;;;;;;;;;;;;21.05;35.19;95519.84;1040203;28;1010;-59
2021/11/05 00:11:43;;;;;;;;;;;;;;;21.05;35.25;95522.47;1040410;28;1015;-59
2021/11/05 00:12:13;;;;;;;;;;;;;;;21.04;35.36;95522.78;1044106;28;812;-58
2021/11/05 00:12:44;;;;;;;;;;;;;;;21.03;35.46;95527.25;1044479;28;1225;-58
2021/11/05 00:13:15;;;;;;;;;;;;;;;21.03;35.10;95521.97;1040265;28;800;-59
2021/11/05 00:13:45;;;;;;;;;;;;;;;21.05;35.35;95517.22;1040290;28;832;-58
2021/11/05 00:14:15;;;;;;;;;;;;;;;21.05;35.34;95525.13;1039826;28;950;-59
2021/11/05 00:14:46;;;;;;;;;;;;;;;21.06;35.00;95518.00;1040179;28;789;-59
2021/11/05 00:15:17;;;;;;;;;;;;;;;21.08;35.08;95528.25;1040438;28;1010;-60
2021/11/05 00:15:47;;;;;;;;;;;;;;;21.10;34.90;95518.22;1040414;28;907;-58
2021/11/05 00:16:18;;;;;;;;;;;;;;;21.06;35.29;95521.41;1039424;28;793;-59
2021/11/05 00:16:48;;;;;;;;;;;;;;;21.07;35.21;95519.56;1040494;28;950;-59
2021/11/05 00:17:19;;;;;;;;;;;;;;;21.06;35.36;95523.28;1040347;28;816;-60
2021/11/05 00:17:49;;;;;;;;;;;;;;;21.05;35.01;95514.56;1040371;28;1030;-59
2021/11/05 00:18:19;;;;;;;;;;;;;;;21.06;35.22;95526.69;1040015;28;1089;-61
2021/11/05 00:18:50;;;;;;;;;;;;;;;21.08;35.06;95519.28;1036321;28;1368;-60
2021/11/05 00:19:20;;;;;;;;;;;;;;;21.05;35.26;95517.22;1040346;28;816;-58
2021/11/05 00:19:50;;;;;;;;;;;;;;;21.07;35.06;95519.56;1040450;28;793;-61
2021/11/05 00:20:20;;;;;;;;;;;;;;;21.05;35.20;95522.47;1039763;28;745;-60
2021/11/05 00:20:51;;;;;;;;;;;;;;;21.05;34.84;95519.84;1040517;28;784;-60
2021/11/05 00:21:21;;;;;;;;;;;;;;;21.03;35.18;95518.56;1040872;28;789;-61
2021/11/05 00:21:52;;;;;;;;;;;;;;;21.04;35.02;95520.13;1040603;28;855;-60
2021/11/05 00:22:22;;;;;;;;;;;;;;;21.02;35.08;95517.75;1039828;28;1300;-60
2021/11/05 00:22:52;;;;;;;;;;;;;;;21.03;34.95;95523.81;1036346;28;2365;-61
2021/11/05 00:23:23;;;;;;;;;;;;;;;21.06;35.12;95518.78;1036290;28;785;-60
2021/11/05 00:23:53;;;;;;;;;;;;;;;21.04;35.07;95520.13;1035932;28;852;-58
2021/11/05 00:24:23;;;;;;;;;;;;;;;21.05;34.91;95517.22;1035395;28;1332;-61
2021/11/05 00:24:54;;;;;;;;;;;;;;;21.03;34.88;95518.56;1040306;28;824;-58
2021/11/05 00:25:24;;;;;;;;;;;;;;;21.03;35.23;95519.34;1040093;28;879;-59
2021/11/05 00:25:54;;;;;;;;;;;;;;;21.04;35.38;95525.41;1040197;28;1130;-59
2021/11/05 00:26:25;;;;;;;;;;;;;;;21.03;35.24;95527.25;1040212;28;1046;-59
2021/11/05 00:26:55;;;;;;;;;;;;;;;21.02;35.11;95520.41;1040262;28;1934;-57
2021/11/05 00:27:25;;;;;;;;;;;;;;;21.03;34.96;95521.97;1040450;28;1059;-59
2021/11/05 00:27:56;;;;;;;;;;;;;;;21.02;35.01;95523.03;1040448;28;784;-59
2021/11/05 00:28:26;;;;;;;;;;;;;;;21.01;35.23;95529.34;1035966;28;940;-57
2021/11/05 00:28:56;;;;;;;;;;;;;;;21.00;35.02;95527.78;1036095;28;940;-58
2021/11/05 00:29:27;;;;;;;;;;;;;;;20.99;35.08;95518.31;1036018;28;863;-60
2021/11/05 00:29:57;;;;;;;;;;;;;;;21.01;35.24;95523.28;1036140;28;982;-60
2021/11/05 00:30:27;;;;;;;;;;;;;;;21.01;35.32;95518.81;1040340;28;804;-61
2021/11/05 00:30:57;;;;;;;;;;;;;;;21.00;34.89;95522.50;1039442;28;908;-57
2021/11/05 00:31:28;;;;;;;;;;;;;;;21.02;34.94;95524.88;1040663;28;766;-60
2021/11/05 00:31:58;;;;;;;;;;;;;;;20.99;35.39;95520.16;1040517;28;1026;-60
2021/11/05 00:32:28;;;;;;;;;;;;;;;21.00;34.97;95521.72;1040360;28;1204;-57
2021/11/05 00:32:59;;;;;;;;;;;;;;;20.98;35.09;95524.63;1040574;28;797;-60
2021/11/05 00:33:29;;;;;;;;;;;;;;;20.99;35.24;95525.44;1040571;28;876;-60
2021/11/05 00:33:59;;;;;;;;;;;;;;;21.01;35.08;95523.28;1040626;28;702;-59
2021/11/05 00:34:30;;;;;;;;;;;;;;;21.00;35.15;95524.34;1039734;28;1625;-60
2021/11/05 00:35:00;;;;;;;;;;;;;;;21.02;34.96;95525.66;1040232;28;863;-59
2021/11/05 00:35:30;;;;;;;;;;;;;;;21.00;35.01;95525.13;1039831;28;1011;-60
2021/11/05 00:36:01;;;;;;;;;;;;;;;21.01;34.87;95523.28;1040196;28;870;-58
2021/11/05 00:36:31;;;;;;;;;;;;;;;20.99;35.24;95531.50;1044408;28;784;-58
2021/11/05 00:37:02;;;;;;;;;;;;;;;21.00;34.89;95524.34;1044103;28;841;-57
2021/11/05 00:37:32;;;;;;;;;;;;;;;20.97;34.95;95525.72;1040747;28;793;-60
2021/11/05 00:38:03;;;;;;;;;;;;;;;20.97;35.09;95525.72;1040751;28;998;-57
2021/11/05 00:38:33;;;;;;;;;;;;;;;20.94;35.10;95528.91;1040514;28;962;-59
2021/11/05 00:39:03;;;;;;;;;;;;;;;20.97;35.13;95527.56;1040043;28;717;-60
2021/11/05 00:39:34;;;;;;;;;;;;;;;20.97;35.20;95520.44;1040693;28;769;-59
2021/11/05 00:40:05;;;;;;;;;;;;;;;20.97;35.23;95519.66;1040503;28;801;-59
2021/11/05 00:40:35;;;;;;;;;;;;;;;20.97;35.32;95528.34;1039938;28;1054;-59
2021/11/05 00:41:05;;;;;;;;;;;;;;;20.97;35.11;95532.81;1040105;28;1050;-60
2021/11/05 00:41:36;;;;;;;;;;;;;;;20.97;34.76;95523.06;1040362;28;1049;-61
2021/11/05 00:42:06;;;;;;;;;;;;;;;20.96;35.16;95529.41;1039780;28;1220;-60
2021/11/05 00:42:36;;;;;;;;;;;;;;;20.94;35.18;95523.63;1040613;28;1253;-58
2021/11/05 00:43:07;;;;;;;;;;;;;;;20.96;34.95;95529.41;1044217;28;829;-58
2021/11/05 00:43:37;;;;;;;;;;;;;;;20.96;35.05;95529.41;1044417;28;832;-58
2021/11/05 00:44:07;;;;;;;;;;;;;;;20.98;35.11;95529.09;1044320;28;816;-59
2021/11/05 00:44:38;;;;;;;;;;;;;;;20.96;35.14;95526.75;1043636;28;1050;-61
2021/11/05 00:45:08;;;;;;;;;;;;;;;20.97;35.06;95527.56;1043821;28;995;-61
2021/11/05 00:45:38;;;;;;;;;;;;;;;20.96;34.66;95529.41;1044233;28;815;-61
2021/11/05 00:46:09;;;;;;;;;;;;;;;20.95;35.07;95519.94;1043314;28;1018;-59
2021/11/05 00:46:39;;;;;;;;;;;;;;;20.96;35.10;95524.13;1044516;28;754;-60
2021/11/05 00:47:09;;;;;;;;;;;;;;;20.96;35.11;95523.34;1040379;28;1898;-60
2021/11/05 00:47:40;;;;;;;;;;;;;;;20.96;35.10;95523.34;1040563;28;998;-60
2021/11/05 00:48:10;;;;;;;;;;;;;;;20.94;35.14;95526.25;1040633;28;776;-60
2021/11/05 00:48:41;;;;;;;;;;;;;;;20.95;35.12;95522.56;1039820;28;745;-60
2021/11/05 00:49:11;;;;;;;;;;;;;;;20.94;35.00;95520.19;1036072;28;1553;-60
2021/11/05 00:49:44;;;;;;;;;;;;;;;20.96;34.76;95520.69;1035909;28;746;-58
2021/11/05 00:50:15;;;;;;;;;;;;;;;20.94;35.21;95521.00;1036263;28;762;-60
2021/11/05 00:50:45;;;;;;;;;;;;;;;20.95;35.31;95522.56;1040219;28;936;-60
2021/11/05 00:51:15;;;;;;;;;;;;;;;20.94;35.22;95523.63;1040394;28;734;-60
2021/11/05 00:51:46;;;;;;;;;;;;;;;20.95;34.93;95521.78;1040374;28;777;-59
2021/11/05 00:52:16;;;;;;;;;;;;;;;20.93;35.06;95524.72;1039845;28;808;-60
2021/11/05 00:52:46;;;;;;;;;;;;;;;20.93;35.00;95524.72;1044292;28;1325;-61
2021/11/05 00:53:16;;;;;;;;;;;;;;;20.93;35.12;95529.19;1044379;28;757;-60
2021/11/05 00:53:47;;;;;;;;;;;;;;;20.92;34.83;95528.38;1044067;28;746;-61
2021/11/05 00:54:17;;;;;;;;;;;;;;;20.93;35.00;95527.34;1043896;28;737;-60
2021/11/05 00:54:47;;;;;;;;;;;;;;;20.94;35.26;95525.47;1040167;28;987;-61
2021/11/05 00:55:18;;;;;;;;;;;;;;;20.94;35.01;95534.16;1040227;28;1019;-60
2021/11/05 00:55:48;;;;;;;;;;;;;;;20.94;34.98;95523.63;1040177;28;1081;-61
2021/11/05 00:56:19;;;;;;;;;;;;;;;20.92;34.91;95525.75;1040432;28;797;-60
2021/11/05 00:56:49;;;;;;;;;;;;;;;20.93;34.98;95521.28;1040564;28;979;-61
2021/11/05 00:57:20;;;;;;;;;;;;;;;20.92;34.94;95531.03;1040225;28;781;-61
2021/11/05 00:57:50;;;;;;;;;;;;;;;20.90;35.09;95530.53;1044052;28;1391;-60
2021/11/05 00:58:21;;;;;;;;;;;;;;;20.90;34.84;95533.16;1044264;28;792;-61
2021/11/05 00:58:51;;;;;;;;;;;;;;;20.92;35.03;95531.03;1044147;28;657;-60
2021/11/05 00:59:22;;;;;;;;;;;;;;;20.92;35.00;95531.03;1043708;28;812;-60
2021/11/05 00:59:52;;;;;;;;;;;;;;;20.94;34.98;95533.38;1039869;28;1310;-61
2021/11/05 01:00:22;;;;;;;;;;;;;;;20.93;34.78;95531.81;1039840;28;788;-60
2021/11/05 01:00:53;;;;;;;;;;;;;;;20.92;34.90;95532.88;1038914;28;808;-62
2021/11/05 01:01:23;;;;;;;;;;;;;;;20.90;34.72;95532.38;1040031;28;731;-60
2021/11/05 01:01:53;;;;;;;;;;;;;;;20.89;35.00;95534.25;1044120;28;726;-61
2021/11/05 01:02:24;;;;;;;;;;;;;;;20.88;34.82;95534.50;1039695;28;1376;-60
2021/11/05 01:02:54;;;;;;;;;;;;;;;20.87;34.85;95532.94;1040210;28;983;-60
2021/11/05 01:03:24;;;;;;;;;;;;;;;20.88;35.09;95530.03;1040369;28;990;-60
2021/11/05 01:03:55;;;;;;;;;;;;;;;20.89;34.73;95530.81;1039922;28;722;-61
2021/11/05 01:04:25;;;;;;;;;;;;;;;20.88;35.20;95530.03;1039672;28;994;-60
2021/11/05 01:04:55;;;;;;;;;;;;;;;20.88;34.96;95539.75;1040469;28;756;-60
2021/11/05 01:05:26;;;;;;;;;;;;;;;20.87;34.81;95532.94;1038730;28;1023;-60
2021/11/05 01:05:56;;;;;;;;;;;;;;;20.86;35.01;95534.00;1039085;28;1054;-60
2021/11/05 01:06:26;;;;;;;;;;;;;;;20.85;34.94;95533.22;1036004;28;1010;-60
2021/11/05 01:06:57;;;;;;;;;;;;;;;20.86;34.97;95537.41;1035989;28;1910;-60
2021/11/05 01:07:27;;;;;;;;;;;;;;;20.89;34.98;95536.09;1040063;28;1089;-60
2021/11/05 01:07:57;;;;;;;;;;;;;;;20.86;34.89;95531.34;1040305;28;987;-60
2021/11/05 01:08:28;;;;;;;;;;;;;;;20.86;35.10;95531.34;1040297;28;800;-60
2021/11/05 01:08:58;;;;;;;;;;;;;;;20.86;34.80;95540.06;1040158;28;583;-60
2021/11/05 01:09:28;;;;;;;;;;;;;;;20.85;35.04;95538.50;1040463;28;991;-61
2021/11/05 01:09:59;;;;;;;;;;;;;;;20.84;35.12;95534.28;1040239;28;955;-60
2021/11/05 01:10:29;;;;;;;;;;;;;;;20.84;34.86;95542.19;1039961;28;1034;-58
2021/11/05 01:10:59;;;;;;;;;;;;;;;20.84;34.95;95541.38;1031382;28;721;-59
2021/11/05 01:11:30;;;;;;;;;;;;;;;20.84;35.04;95539.53;1032110;28;816;-60
2021/11/05 01:12:01;;;;;;;;;;;;;;;20.84;35.15;95534.28;1031981;28;769;-58
2021/11/05 01:12:31;;;;;;;;;;;;;;;20.84;35.04;95538.75;1031551;28;1319;-60
2021/11/05 01:13:07;;;;;;;;;;;;;;;20.86;34.76;95537.41;1040499;28;1049;-60
2021/11/05 01:13:38;;;;;;;;;;;;;;;20.88;34.88;95534.50;1040297;28;836;-60
2021/11/05 01:14:08;;;;;;;;;;;;;;;20.90;35.05;95538.44;1039513;28;1896;-60
2021/11/05 01:14:39;;;;;;;;;;;;;;;20.88;35.17;95543.19;1039392;28;742;-58
2021/11/05 01:15:09;;;;;;;;;;;;;;;20.92;34.73;95540.78;1040041;28;887;-60
2021/11/05 01:15:40;;;;;;;;;;;;;;;20.88;34.91;95537.91;1040560;28;698;-59
2021/11/05 01:16:10;;;;;;;;;;;;;;;20.86;34.90;95541.91;1038717;28;788;-60
2021/11/05 01:16:41;;;;;;;;;;;;;;;20.86;34.87;95534.00;1040282;28;790;-61
2021/11/05 01:17:11;;;;;;;;;;;;;;;20.87;34.89;95543.47;1036103;28;1254;-60
2021/11/05 01:17:42;;;;;;;;;;;;;;;20.86;35.25;95541.91;1035984;28;883;-60
2021/11/05 01:18:12;;;;;;;;;;;;;;;20.86;34.74;95540.06;1036066;28;883;-61
2021/11/05 01:18:43;;;;;;;;;;;;;;;20.87;34.72;95540.84;1035904;28;907;-60
2021/11/05 01:19:13;;;;;;;;;;;;;;;20.83;35.11;95538.00;1040246;28;876;-59
2021/11/05 01:19:44;;;;;;;;;;;;;;;20.84;34.95;95542.19;1040597;28;840;-60
2021/11/05 01:20:15;;;;;;;;;;;;;;;20.82;35.15;95546.94;1040406;28;699;-60
2021/11/05 01:20:46;;;;;;;;;;;;;;;20.83;35.08;95543.25;1039927;28;1006;-57
2021/11/05 01:21:16;;;;;;;;;;;;;;;20.82;34.98;95541.69;1039522;28;1485;-60
2021/11/05 01:21:46;;;;;;;;;;;;;;;20.82;35.06;95539.03;1040166;28;796;-60
2021/11/05 01:22:17;;;;;;;;;;;;;;;20.82;35.21;95541.69;1035826;28;1368;-60
2021/11/05 01:22:47;;;;;;;;;;;;;;;20.81;35.16;95545.34;1039832;28;1333;-59
2021/11/05 01:23:19;;;;;;;;;;;;;;;20.79;35.11;95550.13;1040175;28;1022;-59
2021/11/05 01:23:49;;;;;;;;;;;;;;;20.82;35.12;95543.53;1040071;28;863;-59
2021/11/05 01:24:20;;;;;;;;;;;;;;;20.81;35.14;95540.09;1043512;28;1215;-58
2021/11/05 01:24:50;;;;;;;;;;;;;;;20.80;35.00;95543.81;1039766;28;784;-59
2021/11/05 01:25:21;;;;;;;;;;;;;;;20.81;35.04;95545.34;1040086;28;800;-59
2021/11/05 01:25:51;;;;;;;;;;;;;;;20.82;35.05;95540.88;1035620;28;852;-59
2021/11/05 01:26:22;;;;;;;;;;;;;;;20.80;34.95;95537.75;1035641;28;977;-60
2021/11/05 01:26:52;;;;;;;;;;;;;;;20.80;35.11;95543.81;1035805;28;1910;-60
2021/11/05 01:27:22;;;;;;;;;;;;;;;20.80;35.10;95545.66;1036090;28;997;-59
2021/11/05 01:27:53;;;;;;;;;;;;;;;20.78;34.86;95548.56;1040034;28;801;-60
2021/11/05 01:28:23;;;;;;;;;;;;;;;20.78;35.06;95540.66;1040194;28;697;-60
2021/11/05 01:28:54;;;;;;;;;;;;;;;20.77;34.93;95539.09;1040000;28;768;-58
2021/11/05 01:29:24;;;;;;;;;;;;;;;20.78;34.83;95543.31;1043754;28;1061;-60
2021/11/05 01:29:58;;;;;;;;;;;;;;;20.78;34.98;95543.31;1044124;28;1010;-58
2021/11/05 01:30:29;;;;;;;;;;;;;;;20.78;34.83;95548.56;1043647;28;1022;-57
2021/11/05 01:30:59;;;;;;;;;;;;;;;20.77;35.11;95543.59;1038882;28;994;-60
2021/11/05 01:31:29;;;;;;;;;;;;;;;20.76;35.14;95549.91;1040041;28;924;-60
2021/11/05 01:32:00;;;;;;;;;;;;;;;20.78;34.99;95551.22;1040408;28;995;-57
2021/11/05 01:32:30;;;;;;;;;;;;;;;20.77;35.07;95549.63;1039892;28;1253;-59
2021/11/05 01:33:06;;;;;;;;;;;;;;;20.75;34.87;95548.34;1039450;28;811;-59
2021/11/05 01:33:37;;;;;;;;;;;;;;;20.74;35.03;95544.94;1039827;28;820;-58
2021/11/05 01:34:07;;;;;;;;;;;;;;;20.75;34.99;95550.97;1040044;28;1090;-58
2021/11/05 01:34:38;;;;;;;;;;;;;;;20.75;34.73;95545.72;1039218;28;1046;-60
2021/11/05 01:35:08;;;;;;;;;;;;;;;20.74;34.88;95544.13;1039698;28;1018;-59
2021/11/05 01:35:39;;;;;;;;;;;;;;;20.75;35.05;95543.09;1036076;28;858;-59
2021/11/05 01:36:10;;;;;;;;;;;;;;;20.74;35.19;95544.94;1039354;28;768;-59
2021/11/05 01:36:40;;;;;;;;;;;;;;;20.74;35.09;95544.13;1035817;28;1416;-60
2021/11/05 01:37:10;;;;;;;;;;;;;;;20.73;35.06;95543.34;1036165;28;808;-59
2021/11/05 01:37:41;;;;;;;;;;;;;;;20.72;35.02;95547.06;1038072;28;1493;-60
2021/11/05 01:38:11;;;;;;;;;;;;;;;20.72;35.08;95544.41;1039828;28;812;-60
2021/11/05 01:38:41;;;;;;;;;;;;;;;20.72;34.93;95541.00;1044241;28;918;-60
2021/11/05 01:39:12;;;;;;;;;;;;;;;20.72;34.86;95541.78;1044136;28;839;-60
2021/11/05 01:39:42;;;;;;;;;;;;;;;20.72;35.00;95541.78;1038974;28;784;-60
2021/11/05 01:40:13;;;;;;;;;;;;;;;20.73;35.17;95545.22;1039621;28;1460;-60
2021/11/05 01:40:44;;;;;;;;;;;;;;;20.73;35.01;95545.22;1040046;28;856;-60
2021/11/05 01:41:14;;;;;;;;;;;;;;;20.71;35.01;95545.47;1039820;28;1014;-60
2021/11/05 01:41:44;;;;;;;;;;;;;;;20.70;35.07;95546.56;1039909;28;751;-58
2021/11/05 01:42:15;;;;;;;;;;;;;;;20.73;34.79;95542.56;1043795;28;796;-58
2021/11/05 01:42:45;;;;;;;;;;;;;;;20.72;35.02;95546.25;1040329;28;1273;-59
2021/11/05 01:43:16;;;;;;;;;;;;;;;20.70;34.97;95546.56;1040310;28;1002;-59
2021/11/05 01:43:47;;;;;;;;;;;;;;;20.73;35.07;95545.97;1040197;28;959;-59
2021/11/05 01:44:21;;;;;;;;;;;;;;;20.72;35.08;95544.41;1039763;28;1626;-58
2021/11/05 01:44:51;;;;;;;;;;;;;;;20.72;34.93;95546.25;1035667;28;868;-60
2021/11/05 01:45:22;;;;;;;;;;;;;;;20.70;34.92;95543.91;1035903;28;943;-59
2021/11/05 01:45:52;;;;;;;;;;;;;;;20.69;34.86;95538.94;1035389;28;991;-59
2021/11/05 01:46:22;;;;;;;;;;;;;;;20.69;35.03;95544.97;1039895;28;1085;-58
2021/11/05 01:46:53;;;;;;;;;;;;;;;20.70;35.01;95546.56;1040254;28;1910;-62
2021/11/05 01:47:23;;;;;;;;;;;;;;;20.70;34.96;95548.38;1040456;28;790;-60
2021/11/05 01:47:53;;;;;;;;;;;;;;;20.70;34.89;95540.50;1040258;28;903;-60
2021/11/05 01:48:24;;;;;;;;;;;;;;;20.69;35.11;95546.84;1040361;28;776;-58
2021/11/05 01:48:55;;;;;;;;;;;;;;;20.68;34.96;95548.69;1040302;28;831;-59
2021/11/05 01:49:25;;;;;;;;;;;;;;;20.67;34.97;95548.97;1040123;28;1105;-58
2021/11/05 01:49:56;;;;;;;;;;;;;;;20.68;34.82;95546.03;1039381;28;991;-59
2021/11/05 01:50:27;;;;;;;;;;;;;;;20.69;34.76;95546.84;1039994;28;1006;-59
2021/11/05 01:50:57;;;;;;;;;;;;;;;20.70;34.96;95541.28;1039905;28;874;-59
2021/11/05 01:51:27;;;;;;;;;;;;;;;20.68;35.21;95540.78;1040121;28;1046;-60
2021/11/05 01:51:58;;;;;;;;;;;;;;;20.70;35.03;95543.91;1039739;28;1053;-59
2021/11/05 01:52:28;;;;;;;;;;;;;;;20.68;35.13;95543.41;1039821;28;1288;-57
2021/11/05 01:52:58;;;;;;;;;;;;;;;20.68;35.04;95546.03;1044131;28;835;-59
2021/11/05 01:53:29;;;;;;;;;;;;;;;20.67;34.78;95549.72;1044166;28;784;-60
2021/11/05 01:53:59;;;;;;;;;;;;;;;20.66;34.97;95550.81;1040140;28;766;-59
2021/11/05 01:54:30;;;;;;;;;;;;;;;20.67;34.84;95544.47;1039309;28;727;-59
2021/11/05 01:55:00;;;;;;;;;;;;;;;20.66;34.92;95540.28;1034792;28;982;-60
2021/11/05 01:55:30;;;;;;;;;;;;;;;20.67;34.77;95543.69;1039288;28;970;-54
2021/11/05 01:56:01;;;;;;;;;;;;;;;20.65;34.99;95549.22;1039830;28;852;-60
2021/11/05 01:56:32;;;;;;;;;;;;;;;20.68;34.71;95548.69;1040147;28;851;-59
2021/11/05 01:57:02;;;;;;;;;;;;;;;20.65;34.84;95546.59;1039841;28;1002;-59
2021/11/05 01:57:33;;;;;;;;;;;;;;;20.65;34.95;95551.84;1040466;28;892;-58
2021/11/05 01:58:03;;;;;;;;;;;;;;;20.66;34.98;95542.91;1040447;28;776;-59
2021/11/05 01:58:33;;;;;;;;;;;;;;;20.66;34.96;95542.13;1040170;28;781;-59
2021/11/05 01:59:04;;;;;;;;;;;;;;;20.65;34.82;95556.34;1040149;28;726;-58
2021/11/05 01:59:35;;;;;;;;;;;;;;;20.63;34.85;95548.72;1040385;28;825;-59
2021/11/05 02:00:06;;;;;;;;;;;;;;;20.64;35.00;95547.66;1040235;28;999;-58
2021/11/05 02:00:37;;;;;;;;;;;;;;;20.65;35.02;95541.31;1040041;28;802;-57
2021/11/05 02:01:07;;;;;;;;;;;;;;;20.64;35.04;95550.28;1039099;28;769;-59
2021/11/05 02:01:37;;;;;;;;;;;;;;;20.65;34.89;95557.13;1040273;28;1002;-58
2021/11/05 02:02:08;;;;;;;;;;;;;;;20.65;34.82;95553.72;1039630;28;1330;-60
2021/11/05 02:02:38;;;;;;;;;;;;;;;20.64;34.83;95555.56;1039894;28;1221;-59
2021/11/05 02:03:09;;;;;;;;;;;;;;;20.65;34.97;95553.72;1039451;28;797;-56
2021/11/05 02:03:39;;;;;;;;;;;;;;;20.65;34.72;95551.84;1040124;28;912;-59
2021/11/05 02:04:09;;;;;;;;;;;;;;;20.63;34.82;95551.34;1040004;28;876;-58
2021/11/05 02:04:40;;;;;;;;;;;;;;;20.64;34.75;95545.03;1039608;28;1482;-59
2021/11/05 02:05:10;;;;;;;;;;;;;;;20.63;34.70;95548.72;1039807;28;1467;-59
2021/11/05 02:05:41;;;;;;;;;;;;;;;20.63;34.93;95553.97;1035449;28;1453;-58
2021/11/05 02:06:11;;;;;;;;;;;;;;;20.63;34.66;95553.97;1035912;28;801;-59
2021/11/05 02:07:02;;;;;;;;;;;;;;;20.63;34.86;95559.25;1035636;28;1968;-56
2021/11/05 02:07:53;;;;;;;;;;;;;;;20.63;34.68;95553.97;1037411;28;1208;-55
2021/11/05 02:08:43;;;;;;;;;;;;;;;20.62;34.93;95547.16;1042134;28;1056;-59
2021/11/05 02:09:28;;;;;;;;;;;;;;;20.63;34.79;95559.25;1039469;28;805;-56
2021/11/05 02:09:59;;;;;;;;;;;;;;;20.62;34.97;95555.06;1039924;28;796;-58
2021/11/05 02:10:30;;;;;;;;;;;;;;;20.62;34.70;95551.63;1035965;28;722;-58
2021/11/05 02:11:00;;;;;;;;;;;;;;;20.60;34.73;95554.56;1030238;28;1510;-58
2021/11/05 02:11:51;;;;;;;;;;;;;;;20.62;34.78;95543.72;1031469;28;1122;-59
2021/11/05 02:12:41;;;;;;;;;;;;;;;20.61;35.09;95553.47;1038819;28;1414;-57
2021/11/05 02:13:25;;;;;;;;;;;;;;;20.61;34.66;95558.75;1044200;28;797;-58
2021/11/05 02:13:56;;;;;;;;;;;;;;;20.61;34.85;95553.47;1043317;28;792;-58
2021/11/05 02:14:30;;;;;;;;;;;;;;;20.61;34.85;95550.06;1035124;28;1348;-57
2021/11/05 02:15:20;;;;;;;;;;;;;;;20.60;34.79;95562.44;1035941;28;809;-58
2021/11/05 02:16:11;;;;;;;;;;;;;;;20.60;34.70;95554.56;1036339;28;896;-59
2021/11/05 02:16:45;;;;;;;;;;;;;;;20.60;34.83;95559.81;1040211;28;820;-59
2021/11/05 02:17:15;;;;;;;;;;;;;;;20.60;34.86;95559.81;1040095;28;543;-58
2021/11/05 02:17:51;;;;;;;;;;;;;;;20.60;34.73;95556.38;1039448;28;1553;-58
2021/11/05 02:18:41;;;;;;;;;;;;;;;20.62;34.84;95562.97;1037067;28;1070;-56
2021/11/05 02:19:32;;;;;;;;;;;;;;;20.61;35.14;95563.25;1040033;28;828;-56
2021/11/05 02:20:24;;;;;;;;;;;;;;;20.62;35.00;95557.69;1040244;28;1080;-58
2021/11/05 02:20:55;;;;;;;;;;;;;;;20.62;34.90;95557.69;1039671;28;821;-58
2021/11/05 02:21:27;;;;;;;;;;;;;;;20.63;35.13;95556.63;1039777;28;809;-57
2021/11/05 02:22:18;;;;;;;;;;;;;;;20.63;34.96;95561.13;1039092;28;705;-58
2021/11/05 02:23:08;;;;;;;;;;;;;;;20.62;34.80;95557.69;1040005;28;996;-57
2021/11/05 02:23:58;;;;;;;;;;;;;;;20.62;35.11;95562.16;1040369;28;817;-57
2021/11/05 02:24:49;;;;;;;;;;;;;;;20.62;34.92;95565.59;1044216;28;970;-60
2021/11/05 02:25:39;;;;;;;;;;;;;;;20.61;35.01;95566.63;1041015;28;855;-59
2021/11/05 02:26:18;;;;;;;;;;;;;;;20.61;35.05;95566.63;1040476;28;1325;-55
2021/11/05 02:26:48;;;;;;;;;;;;;;;20.61;35.19;95565.88;1040690;28;1965;-57
2021/11/05 02:27:19;;;;;;;;;;;;;;;20.60;34.88;95559.81;1040672;28;812;-59
2021/11/05 02:28:09;;;;;;;;;;;;;;;20.60;35.08;95574.81;1040997;28;1076;-59
2021/11/05 02:28:59;;;;;;;;;;;;;;;20.59;34.98;95568.78;1040932;28;801;-57
2021/11/05 02:29:50;;;;;;;;;;;;;;;20.58;35.04;95567.22;1041141;28;861;-58
2021/11/05 02:30:40;;;;;;;;;;;;;;;20.61;35.76;95571.91;1040902;28;1018;-59
2021/11/05 02:31:16;;;;;;;;;;;;;;;20.60;35.15;95564.28;1039568;28;1067;-57
2021/11/05 02:31:47;;;;;;;;;;;;;;;20.61;35.30;95564.00;1040704;28;891;-59
2021/11/05 02:32:18;;;;;;;;;;;;;;;20.61;35.30;95561.38;1040246;28;848;-59
2021/11/05 02:32:49;;;;;;;;;;;;;;;20.62;35.22;95567.44;1036004;28;1562;-58
2021/11/05 02:33:30;;;;;;;;;;;;;;;20.63;35.12;95569.78;1040619;28;1344;-58
2021/11/05 02:34:20;;;;;;;;;;;;;;;20.64;35.29;95563.47;1041856;28;1170;-59
2021/11/05 02:35:11;;;;;;;;;;;;;;;20.63;35.69;95569.78;1042450;28;1374;-56
2021/11/05 02:35:42;;;;;;;;;;;;;;;20.61;35.40;95571.16;1040583;28;926;-57
2021/11/05 02:36:13;;;;;;;;;;;;;;;20.60;35.38;95573.00;1040460;28;804;-57
2021/11/05 02:37:05;;;;;;;;;;;;;;;20.62;35.49;95573.50;1040602;28;1102;-58
2021/11/05 02:37:55;;;;;;;;;;;;;;;20.59;35.22;95571.41;1040409;28;1010;-55
2021/11/05 02:38:45;;;;;;;;;;;;;;;20.61;35.40;95571.16;1041229;28;1247;-57
2021/11/05 02:39:16;;;;;;;;;;;;;;;20.60;35.30;95580.88;1040626;28;1300;-56
2021/11/05 02:39:47;;;;;;;;;;;;;;;20.63;35.15;95572.41;1040723;28;820;-56
2021/11/05 02:40:37;;;;;;;;;;;;;;;20.63;34.97;95577.69;1040446;28;1073;-59
2021/11/05 02:41:27;;;;;;;;;;;;;;;20.61;34.94;95571.91;1041058;28;987;-56
2021/11/05 02:41:58;;;;;;;;;;;;;;;20.59;34.86;95576.66;1040640;28;1317;-58
2021/11/05 02:42:48;;;;;;;;;;;;;;;20.60;34.92;95573.00;1037687;28;1411;-59
2021/11/05 02:43:38;;;;;;;;;;;;;;;20.58;35.10;95572.47;1039506;28;1058;-57
2021/11/05 02:44:12;;;;;;;;;;;;;;;20.57;35.14;95576.16;1039766;28;1185;-59
2021/11/05 02:45:00;;;;;;;;;;;;;;;20.59;34.89;95573.25;1040349;28;1300;-59
2021/11/05 02:45:51;;;;;;;;;;;;;;;20.57;35.25;95580.63;1036611;28;1177;-59
2021/11/05 02:46:41;;;;;;;;;;;;;;;20.57;35.18;95580.63;1038983;28;1303;-58
2021/11/05 02:47:19;;;;;;;;;;;;;;;20.58;35.13;95583.00;1040606;28;1910;-57
2021/11/05 02:47:49;;;;;;;;;;;;;;;20.57;35.15;95576.16;1040410;28;1010;-59
2021/11/05 02:48:20;;;;;;;;;;;;;;;20.56;35.21;95577.25;1040283;28;813;-55
2021/11/05 02:48:50;;;;;;;;;;;;;;;20.57;35.24;95573.53;1040567;28;863;-59
2021/11/05 02:49:20;;;;;;;;;;;;;;;20.58;35.33;95576.94;1040518;28;816;-56
2021/11/05 02:49:55;;;;;;;;;;;;;;;20.56;35.05;95582.50;1040967;28;792;-58
2021/11/05 02:50:25;;;;;;;;;;;;;;;20.55;35.24;95583.56;1041158;28;773;-56
2021/11/05 02:50:55;;;;;;;;;;;;;;;20.55;35.36;95575.66;1040744;28;773;-58
2021/11/05 02:51:26;;;;;;;;;;;;;;;20.56;35.09;95571.97;1040816;28;726;-57
2021/11/05 02:51:56;;;;;;;;;;;;;;;20.55;35.29;95566.97;1040804;28;813;-58
2021/11/05 02:52:27;;;;;;;;;;;;;;;20.55;35.15;95570.38;1040666;28;1363;-58
2021/11/05 02:52:57;;;;;;;;;;;;;;;20.54;35.15;95576.72;1040959;28;1029;-59
2021/11/05 02:53:27;;;;;;;;;;;;;;;20.53;35.05;95577.78;1040408;28;832;-56